FEZ weather

Saïss Airport
Fes, Fès Province, Morocco

Public forecast

Using degrees Celsius for public forecast. Weather courtesy of forecast.io.

Current aviation weather report (METAR) for Saïss Airport

Retrieved 2020/07/04 12:00 UTC (2 minutes ago):

GMFF 041200Z 06008KT 350V110 9999 FEW033 35/09 Q1019 NOSIG

Aviation forecast (TAF) for Saïss Airport

Retrieved 2020/07/04 06:45 UTC (5 hours ago):

TAF GMFF 040500Z 0406/0512 18006KT CAVOK